createdAt,value
2018-03-30T00:01:44.775Z,5.10
2018-03-30T00:02:44.765Z,5.40
2018-03-30T00:04:37.689Z,4.50
2018-03-30T00:05:37.700Z,4.70
2018-03-30T00:07:30.652Z,4.60
2018-03-30T00:08:30.628Z,4.50
2018-03-30T00:10:23.554Z,4.60
2018-03-30T00:11:23.566Z,4.30
2018-03-30T00:13:16.510Z,4.00
2018-03-30T00:14:16.503Z,4.50
2018-03-30T00:16:09.441Z,4.40
2018-03-30T00:17:09.437Z,4.40
2018-03-30T00:19:02.354Z,4.50
2018-03-30T00:20:02.379Z,4.30
2018-03-30T00:21:55.304Z,4.40
2018-03-30T00:22:55.296Z,3.80
2018-03-30T00:24:48.226Z,4.00
2018-03-30T00:25:48.237Z,4.00
2018-03-30T00:27:41.178Z,4.50
2018-03-30T00:28:41.167Z,4.30
2018-03-30T00:30:34.106Z,5.20
2018-03-30T00:31:34.111Z,4.80
2018-03-30T00:33:27.092Z,4.40
2018-03-30T00:34:27.041Z,4.20
2018-03-30T00:36:19.992Z,3.90
2018-03-30T00:37:19.983Z,4.10
2018-03-30T00:39:12.900Z,4.40
2018-03-30T00:40:12.910Z,3.80
2018-03-30T00:42:05.854Z,3.80
2018-03-30T00:43:05.847Z,3.90
2018-03-30T00:44:58.768Z,4.00
2018-03-30T00:45:58.782Z,4.00
2018-03-30T00:47:51.738Z,4.30
2018-03-30T00:48:51.710Z,4.30
2018-03-30T00:50:44.636Z,4.20
2018-03-30T00:51:44.646Z,3.80
2018-03-30T00:53:37.585Z,3.90
2018-03-30T00:54:37.631Z,4.80
2018-03-30T00:56:30.519Z,4.00
2018-03-30T00:57:30.514Z,4.00
2018-03-30T00:59:23.438Z,3.80
2018-03-30T01:00:23.445Z,4.30
2018-03-30T01:02:16.388Z,4.20
2018-03-30T01:03:16.378Z,4.30
2018-03-30T01:05:09.299Z,3.90
2018-03-30T01:06:09.313Z,4.20
2018-03-30T01:08:02.256Z,4.20
2018-03-30T01:09:02.246Z,4.00
2018-03-30T01:10:55.165Z,4.00
2018-03-30T01:11:55.180Z,4.80
2018-03-30T01:13:48.632Z,4.10
2018-03-30T01:14:48.623Z,4.10
2018-03-30T01:16:42.064Z,4.10
2018-03-30T01:17:42.045Z,3.90
2018-03-30T01:19:34.988Z,4.10
2018-03-30T01:20:34.990Z,4.30
2018-03-30T01:22:27.933Z,4.20
2018-03-30T01:23:27.928Z,4.20
2018-03-30T01:25:20.850Z,4.20
2018-03-30T01:26:20.858Z,4.30
2018-03-30T01:28:13.800Z,4.20
2018-03-30T01:29:13.790Z,4.00
2018-03-30T01:31:06.719Z,4.50
2018-03-30T01:32:06.728Z,4.30
2018-03-30T01:33:59.671Z,4.10
2018-03-30T01:34:59.662Z,4.60
2018-03-30T01:36:52.609Z,4.30
2018-03-30T01:37:52.598Z,4.60
2018-03-30T01:39:45.534Z,4.10
2018-03-30T01:40:45.541Z,4.40
2018-03-30T01:42:38.487Z,4.90
2018-03-30T01:43:38.480Z,4.70
2018-03-30T01:45:31.395Z,4.50
2018-03-30T01:46:31.409Z,4.40
2018-03-30T01:48:24.351Z,4.30
2018-03-30T01:49:24.399Z,4.60
2018-03-30T01:51:17.271Z,4.40
2018-03-30T01:52:17.281Z,4.40
2018-03-30T01:54:10.230Z,4.60
2018-03-30T01:55:10.221Z,4.70
2018-03-30T01:57:03.170Z,4.60
2018-03-30T01:58:03.153Z,4.40
2018-03-30T01:59:56.085Z,4.60
2018-03-30T02:00:56.094Z,4.90
2018-03-30T02:02:49.039Z,4.70
2018-03-30T02:03:49.025Z,4.60
2018-03-30T02:05:41.952Z,4.60
2018-03-30T02:06:41.964Z,4.80
2018-03-30T02:08:35.402Z,5.00
2018-03-30T02:09:35.394Z,4.60
2018-03-30T02:11:28.324Z,4.60
2018-03-30T02:12:28.332Z,4.80
2018-03-30T02:14:21.774Z,5.00
2018-03-30T02:15:21.766Z,4.60
2018-03-30T02:17:14.725Z,4.40
2018-03-30T02:18:14.703Z,4.80
2018-03-30T02:20:07.629Z,4.90
2018-03-30T02:21:07.636Z,4.70
2018-03-30T02:23:00.584Z,4.70
2018-03-30T02:24:00.592Z,4.50
2018-03-30T02:25:53.498Z,4.60
2018-03-30T02:26:53.511Z,4.80
2018-03-30T02:28:46.448Z,4.80
2018-03-30T02:29:46.443Z,4.70
2018-03-30T02:31:39.371Z,4.40
2018-03-30T02:32:39.378Z,4.70
2018-03-30T02:34:32.323Z,4.40
2018-03-30T02:35:32.316Z,4.70
2018-03-30T02:37:25.242Z,4.80
2018-03-30T02:38:25.253Z,4.90
2018-03-30T02:40:18.200Z,5.00
2018-03-30T02:41:18.191Z,4.70
2018-03-30T02:43:11.132Z,4.80
2018-03-30T02:44:11.123Z,4.90
2018-03-30T02:46:04.057Z,4.70
2018-03-30T02:47:04.069Z,4.70
2018-03-30T02:48:57.008Z,4.70
2018-03-30T02:49:56.999Z,4.80
2018-03-30T02:51:49.984Z,4.80
2018-03-30T02:52:49.930Z,5.60
2018-03-30T02:54:42.882Z,4.90
2018-03-30T02:55:42.871Z,4.80
2018-03-30T02:57:35.813Z,5.00
2018-03-30T02:58:35.807Z,5.20
2018-03-30T03:00:28.753Z,4.80
2018-03-30T03:01:28.741Z,4.90
2018-03-30T05:02:38.125Z,10.20
2018-03-30T05:03:38.102Z,16.40
2018-03-30T05:05:31.032Z,22.20
2018-03-30T05:06:31.015Z,22.50
2018-03-30T05:08:23.920Z,22.70
2018-03-30T05:09:23.929Z,22.50
2018-03-30T05:11:16.856Z,23.80
2018-03-30T05:12:16.843Z,22.80
2018-03-30T05:14:09.762Z,23.20
2018-03-30T05:15:09.774Z,23.10
2018-03-30T05:17:02.710Z,21.00
2018-03-30T05:18:02.700Z,20.40
2018-03-30T05:19:55.646Z,20.60
2018-03-30T05:20:55.630Z,19.60
2018-03-30T05:22:48.546Z,19.80
2018-03-30T05:23:48.562Z,20.80
2018-03-30T05:25:41.509Z,21.40
2018-03-30T05:26:41.494Z,21.70
2018-03-30T05:28:34.421Z,19.80
2018-03-30T05:29:34.429Z,21.00
2018-03-30T05:31:27.366Z,19.00
2018-03-30T05:32:27.353Z,18.50
2018-03-30T05:34:20.293Z,18.20
2018-03-30T05:35:20.285Z,17.50
2018-03-30T05:37:13.225Z,17.50
2018-03-30T05:38:13.221Z,17.40
2018-03-30T05:40:06.157Z,16.20
2018-03-30T05:41:06.139Z,16.00
2018-03-30T05:42:59.063Z,14.50
2018-03-30T05:43:59.070Z,14.60
2018-03-30T05:45:52.017Z,14.80
2018-03-30T05:46:52.003Z,14.80
2018-03-30T05:48:46.420Z,15.50
2018-03-30T05:49:46.431Z,14.40
2018-03-30T05:51:39.371Z,14.70
2018-03-30T05:52:39.366Z,14.50
2018-03-30T05:54:32.286Z,13.60
2018-03-30T05:55:32.293Z,13.30
2018-03-30T05:57:25.238Z,13.90
2018-03-30T05:58:25.226Z,14.00
2018-03-30T06:00:18.165Z,12.50
2018-03-30T06:01:18.157Z,12.60
2018-03-30T06:03:11.079Z,11.50
2018-03-30T06:04:11.089Z,12.70
2018-03-30T06:06:04.038Z,11.70
2018-03-30T06:07:04.021Z,12.10
2018-03-30T06:08:56.955Z,11.60
2018-03-30T06:09:56.958Z,12.00
2018-03-30T06:11:49.919Z,11.70
2018-03-30T06:12:49.900Z,12.10
2018-03-30T06:14:42.818Z,11.60
2018-03-30T06:15:42.826Z,11.40
2018-03-30T06:17:35.780Z,11.40
2018-03-30T06:18:35.761Z,11.20
2018-03-30T06:20:28.702Z,10.90
2018-03-30T06:21:28.691Z,10.80
2018-03-30T06:23:21.626Z,10.80
2018-03-30T06:24:21.632Z,10.60
2018-03-30T06:26:14.581Z,10.60
2018-03-30T06:27:14.562Z,10.80
2018-03-30T06:29:07.481Z,10.30
2018-03-30T06:30:07.494Z,10.00
2018-03-30T06:32:00.443Z,10.10
2018-03-30T06:33:00.427Z,10.70
2018-03-30T06:34:53.355Z,10.90
2018-03-30T06:35:53.358Z,10.40
2018-03-30T06:37:46.306Z,10.30
2018-03-30T06:38:46.291Z,10.40
2018-03-30T06:40:39.234Z,10.10
2018-03-30T06:41:39.225Z,9.80
2018-03-30T06:43:32.150Z,9.30
2018-03-30T06:44:32.160Z,9.50
2018-03-30T06:46:25.115Z,9.40
2018-03-30T06:47:25.098Z,10.20
2018-03-30T06:49:18.015Z,9.20
2018-03-30T06:50:18.026Z,9.70
2018-03-30T06:52:10.976Z,9.30
2018-03-30T06:53:10.958Z,9.20
2018-03-30T06:55:03.886Z,9.30
2018-03-30T06:56:03.894Z,8.90
2018-03-30T06:57:56.838Z,9.20
2018-03-30T06:58:56.879Z,9.40
2018-03-30T07:00:49.861Z,9.30
2018-03-30T07:01:49.788Z,8.60
2018-03-30T07:03:42.703Z,8.80
2018-03-30T07:04:42.690Z,8.20
2018-03-30T07:06:35.636Z,7.70
2018-03-30T07:07:35.625Z,7.60
2018-03-30T07:09:28.546Z,7.90
2018-03-30T07:10:28.553Z,8.00
2018-03-30T07:12:21.498Z,7.70
2018-03-30T07:13:21.487Z,7.60
2018-03-30T07:15:14.424Z,7.50
2018-03-30T07:16:14.435Z,7.40
2018-03-30T07:18:07.377Z,7.40
2018-03-30T07:19:07.366Z,7.60
2018-03-30T07:21:00.294Z,7.50
2018-03-30T07:22:00.302Z,7.60
2018-03-30T07:23:53.254Z,8.60
2018-03-30T07:24:53.234Z,8.70
2018-03-30T07:26:46.180Z,8.10
2018-03-30T07:27:46.172Z,8.40
2018-03-30T07:29:39.095Z,7.70
2018-03-30T07:30:39.100Z,8.40
2018-03-30T07:32:32.041Z,7.70
2018-03-30T07:33:32.043Z,7.40
2018-03-30T07:35:24.953Z,7.80
2018-03-30T07:36:24.963Z,7.60
2018-03-30T07:38:17.911Z,7.50
2018-03-30T07:39:18.088Z,7.70
2018-03-30T07:41:10.841Z,7.30
2018-03-30T07:42:10.833Z,7.50
2018-03-30T07:44:03.783Z,7.00
2018-03-30T07:45:03.772Z,6.90
2018-03-30T07:46:56.753Z,7.10
2018-03-30T07:47:56.717Z,6.90
2018-03-30T07:49:49.628Z,7.10
2018-03-30T07:50:49.637Z,6.80
2018-03-30T07:52:42.597Z,7.00
2018-03-30T07:53:42.572Z,7.10
2018-03-30T07:55:35.495Z,7.30
2018-03-30T07:56:35.522Z,6.70
2018-03-30T07:58:28.453Z,6.10
2018-03-30T07:59:28.446Z,6.60
2018-03-30T08:01:21.372Z,6.90
2018-03-30T08:02:21.380Z,6.80
2018-03-30T08:04:14.326Z,7.10
2018-03-30T08:05:14.320Z,6.70
2018-03-30T08:07:07.270Z,6.40
2018-03-30T08:08:07.260Z,7.30
2018-03-30T08:10:00.193Z,7.00
2018-03-30T08:11:00.200Z,6.80
2018-03-30T08:12:53.143Z,6.70
2018-03-30T08:13:53.134Z,6.60
2018-03-30T08:15:46.058Z,6.40
2018-03-30T08:16:46.072Z,6.80
2018-03-30T08:18:39.023Z,7.00
2018-03-30T08:19:39.012Z,7.50
2018-03-30T08:21:31.942Z,7.70
2018-03-30T08:22:31.988Z,6.60
2018-03-30T08:24:24.903Z,6.40
2018-03-30T08:25:24.888Z,6.20
2018-03-30T08:27:17.835Z,6.60
2018-03-30T08:28:17.826Z,6.50
2018-03-30T08:30:10.781Z,6.80
2018-03-30T08:31:10.768Z,6.80
2018-03-30T08:33:03.717Z,6.30
2018-03-30T08:34:03.708Z,6.40
2018-03-30T08:35:56.638Z,5.90
2018-03-30T08:36:56.658Z,6.20
2018-03-30T08:38:49.607Z,5.80
2018-03-30T08:39:49.606Z,6.20
2018-03-30T08:41:42.532Z,5.20
2018-03-30T08:42:42.544Z,5.30
2018-03-30T08:44:35.990Z,5.10
2018-03-30T08:45:35.980Z,5.10
2018-03-30T08:47:28.934Z,5.40
2018-03-30T08:48:28.926Z,5.00
2018-03-30T08:50:21.857Z,4.70
2018-03-30T08:51:21.873Z,4.40
2018-03-30T08:53:14.833Z,4.40
2018-03-30T08:54:14.821Z,4.70
2018-03-30T08:56:07.762Z,4.10
2018-03-30T08:57:07.768Z,4.30
2018-03-30T08:59:00.720Z,4.20
2018-03-30T09:00:00.716Z,3.60
2018-03-30T09:01:53.648Z,3.40
2018-03-30T09:02:53.659Z,4.00
2018-03-30T09:04:46.612Z,3.60
2018-03-30T09:05:46.608Z,4.00
2018-03-30T09:07:39.561Z,4.00
2018-03-30T09:08:39.555Z,4.20
2018-03-30T09:10:32.487Z,4.50
2018-03-30T09:11:32.498Z,4.60
2018-03-30T09:13:25.946Z,4.30
2018-03-30T09:14:25.939Z,4.30
2018-03-30T09:16:18.869Z,5.00
2018-03-30T09:17:18.889Z,5.00
2018-03-30T09:19:11.840Z,5.00
2018-03-30T09:20:11.837Z,5.20
2018-03-30T09:22:04.771Z,5.50
2018-03-30T09:23:04.783Z,5.60
2018-03-30T09:24:57.731Z,5.20
2018-03-30T09:25:57.731Z,5.50
2018-03-30T09:27:50.680Z,5.50
2018-03-30T09:28:50.678Z,5.30
2018-03-30T09:30:43.605Z,5.40
2018-03-30T09:31:43.619Z,5.20
2018-03-30T09:33:36.569Z,5.30
2018-03-30T09:34:36.567Z,4.60
2018-03-30T09:36:29.501Z,4.90
2018-03-30T09:37:29.522Z,5.00
2018-03-30T09:39:22.481Z,5.10
2018-03-30T09:40:22.468Z,5.20
2018-03-30T09:42:15.399Z,4.70
2018-03-30T09:43:15.415Z,4.50
2018-03-30T09:45:08.363Z,4.90
2018-03-30T09:46:08.358Z,4.60
2018-03-30T09:48:01.809Z,5.20
2018-03-30T09:49:01.802Z,5.40
2018-03-30T09:50:54.737Z,4.60
2018-03-30T09:51:54.751Z,4.50
2018-03-30T09:53:47.703Z,4.90
2018-03-30T09:54:47.698Z,5.10
2018-03-30T09:56:40.630Z,4.60
2018-03-30T09:57:40.641Z,4.70
2018-03-30T09:59:33.599Z,4.60
2018-03-30T10:00:33.601Z,5.00
2018-03-30T10:02:26.527Z,4.50
2018-03-30T10:03:26.550Z,4.20
2018-03-30T10:05:19.487Z,4.50
2018-03-30T10:06:19.483Z,4.50
2018-03-30T10:08:12.455Z,4.10
2018-03-30T10:09:12.433Z,4.10
2018-03-30T10:11:05.360Z,4.60
2018-03-30T10:12:05.375Z,4.20
2018-03-30T10:13:58.329Z,4.30
2018-03-30T10:14:58.332Z,3.90
2018-03-30T10:16:51.257Z,3.90
2018-03-30T10:17:51.266Z,4.10
2018-03-30T10:19:44.221Z,4.30
2018-03-30T10:20:44.219Z,4.20
2018-03-30T10:22:37.152Z,4.20
2018-03-30T10:23:37.162Z,3.90
2018-03-30T10:25:30.123Z,3.90
2018-03-30T10:26:30.109Z,4.10
2018-03-30T10:28:23.046Z,4.00
2018-03-30T10:29:23.059Z,3.90
2018-03-30T10:31:16.017Z,3.90
2018-03-30T10:32:16.010Z,3.80
2018-03-30T10:34:09.464Z,3.70
2018-03-30T10:35:09.455Z,3.60
2018-03-30T10:37:02.389Z,3.90
2018-03-30T10:38:02.399Z,3.80
2018-03-30T10:39:55.355Z,3.40
2018-03-30T10:40:55.349Z,3.80
2018-03-30T10:42:48.287Z,3.90
2018-03-30T10:43:48.294Z,4.10
2018-03-30T10:45:41.252Z,4.00
2018-03-30T10:46:41.251Z,4.00
2018-03-30T10:48:34.189Z,3.90
2018-03-30T10:49:34.202Z,4.10
2018-03-30T10:51:27.164Z,3.60
2018-03-30T10:52:27.159Z,3.90
2018-03-30T10:54:20.114Z,4.20
2018-03-30T10:55:20.110Z,4.30
2018-03-30T10:57:13.054Z,3.70
2018-03-30T10:58:13.065Z,4.10
2018-03-30T11:00:06.011Z,3.90
2018-03-30T11:01:06.007Z,3.60
2018-03-30T11:02:58.939Z,3.80
2018-03-30T11:03:58.962Z,3.30
2018-03-30T11:05:51.920Z,3.40
2018-03-30T11:06:51.916Z,2.70
2018-03-30T11:08:44.856Z,2.40
2018-03-30T11:09:44.867Z,2.40
2018-03-30T11:11:37.869Z,1.80
2018-03-30T11:12:37.815Z,1.80
2018-03-30T11:14:30.769Z,1.90
2018-03-30T11:15:30.764Z,1.80
2018-03-30T11:17:23.710Z,2.10
2018-03-30T11:18:23.721Z,2.10
2018-03-30T11:20:16.677Z,1.90
2018-03-30T11:21:16.671Z,2.10
2018-03-30T11:23:09.605Z,2.10
2018-03-30T11:24:09.625Z,2.00
2018-03-30T11:26:02.585Z,2.10
2018-03-30T11:27:02.574Z,2.00
2018-03-30T11:28:55.508Z,1.80
2018-03-30T11:29:55.528Z,1.80
2018-03-30T11:31:48.483Z,2.10
2018-03-30T11:32:48.478Z,1.90
2018-03-30T11:34:41.427Z,2.40
2018-03-30T11:35:41.424Z,2.60
2018-03-30T11:37:34.359Z,2.10
2018-03-30T11:38:34.376Z,2.10
2018-03-30T11:40:27.331Z,2.70
2018-03-30T11:41:27.323Z,3.00
2018-03-30T11:43:20.260Z,3.00
2018-03-30T11:44:20.275Z,2.90
2018-03-30T11:46:13.222Z,2.90
2018-03-30T11:47:13.218Z,3.10
2018-03-30T11:49:06.155Z,2.70
2018-03-30T11:50:06.168Z,3.00
2018-03-30T11:51:59.122Z,2.90
2018-03-30T11:52:59.127Z,2.90
2018-03-30T11:54:52.080Z,3.00
2018-03-30T11:55:52.072Z,2.90
2018-03-30T11:57:45.007Z,3.00
2018-03-30T11:58:45.025Z,3.40
2018-03-30T12:00:37.973Z,3.20
2018-03-30T12:01:37.966Z,3.20
2018-03-30T12:03:30.904Z,3.00
2018-03-30T12:04:30.920Z,2.80
2018-03-30T12:06:23.883Z,2.80
2018-03-30T12:07:23.882Z,3.00
2018-03-30T12:09:16.813Z,3.00
2018-03-30T12:10:16.827Z,3.00
2018-03-30T12:12:09.781Z,2.90
2018-03-30T12:13:09.790Z,2.90
2018-03-30T12:15:02.730Z,3.00
2018-03-30T12:16:02.726Z,2.60
2018-03-30T12:17:55.659Z,2.90
2018-03-30T12:18:55.680Z,3.00
2018-03-30T12:20:48.629Z,2.70
2018-03-30T12:21:48.629Z,2.50
2018-03-30T12:23:41.556Z,2.50
2018-03-30T12:24:41.575Z,2.80
2018-03-30T12:26:34.527Z,3.10
2018-03-30T12:27:34.518Z,2.70
2018-03-30T12:29:27.457Z,2.50
2018-03-30T12:30:27.469Z,3.00
2018-03-30T12:32:20.423Z,2.90
2018-03-30T12:33:20.423Z,3.10
2018-03-30T12:35:13.370Z,2.80
2018-03-30T12:36:13.369Z,3.00
2018-03-30T12:38:06.307Z,3.30
2018-03-30T12:39:06.316Z,2.70
2018-03-30T12:40:59.288Z,3.30
2018-03-30T12:41:59.267Z,2.90
2018-03-30T12:43:52.201Z,2.70
2018-03-30T12:44:52.216Z,3.00
2018-03-30T12:46:45.170Z,3.30
2018-03-30T12:47:45.171Z,2.80
2018-03-30T12:49:38.110Z,2.90
2018-03-30T12:50:38.139Z,2.70
2018-03-30T12:52:31.084Z,2.90
2018-03-30T12:53:31.079Z,2.70
2018-03-30T12:55:24.039Z,2.60
2018-03-30T12:56:24.031Z,2.40
2018-03-30T12:58:16.967Z,2.80
2018-03-30T12:59:16.983Z,2.40
2018-03-30T13:01:09.944Z,2.70
2018-03-30T13:02:09.944Z,2.70
2018-03-30T13:04:02.881Z,2.80
2018-03-30T13:05:02.896Z,2.70
2018-03-30T13:06:55.848Z,2.70
2018-03-30T13:07:55.848Z,2.80
2018-03-30T13:09:48.785Z,3.40
2018-03-30T13:10:48.795Z,3.30
2018-03-30T13:12:41.755Z,3.00
2018-03-30T13:13:41.751Z,3.10
2018-03-30T13:15:34.708Z,2.80
2018-03-30T13:16:34.707Z,2.50
2018-03-30T13:18:27.640Z,2.40
2018-03-30T13:19:27.652Z,2.30
2018-03-30T13:21:20.612Z,1.80
2018-03-30T13:22:20.606Z,1.90
2018-03-30T13:24:13.562Z,2.00
2018-03-30T13:25:13.562Z,1.90
2018-03-30T13:27:06.529Z,1.90
2018-03-30T13:28:06.523Z,1.80
2018-03-30T13:29:59.454Z,1.80
2018-03-30T13:30:59.479Z,2.00
2018-03-30T13:32:52.420Z,1.70
2018-03-30T13:33:52.415Z,1.90
2018-03-30T13:35:45.392Z,2.00
2018-03-30T13:36:45.371Z,2.20
2018-03-30T13:38:38.303Z,2.30
2018-03-30T13:39:38.327Z,2.30
2018-03-30T13:41:31.276Z,2.30
2018-03-30T13:42:31.282Z,2.20
2018-03-30T13:44:24.213Z,2.30
2018-03-30T13:45:24.226Z,2.80
2018-03-30T13:47:17.180Z,2.60
2018-03-30T13:48:17.180Z,2.90
2018-03-30T13:50:10.112Z,2.50
2018-03-30T13:51:10.136Z,2.70
2018-03-30T13:53:03.082Z,2.80
2018-03-30T13:54:03.078Z,2.80
2018-03-30T13:55:56.016Z,2.40
2018-03-30T13:56:56.031Z,2.40
2018-03-30T13:58:49.002Z,2.70
2018-03-30T13:59:48.982Z,2.60
2018-03-30T14:01:41.958Z,2.80
2018-03-30T14:02:41.937Z,2.50
2018-03-30T14:04:34.874Z,2.70
2018-03-30T14:05:34.890Z,2.60
2018-03-30T14:07:28.336Z,2.60
2018-03-30T14:08:28.332Z,2.90
2018-03-30T14:10:21.771Z,2.50
2018-03-30T14:11:21.799Z,2.60
2018-03-30T14:13:14.748Z,2.80
2018-03-30T14:14:14.745Z,2.80
2018-03-30T14:16:07.695Z,2.50
2018-03-30T14:17:07.701Z,3.20
2018-03-30T14:19:00.660Z,3.60
2018-03-30T14:20:00.660Z,3.00
2018-03-30T14:21:53.590Z,2.90
2018-03-30T14:22:53.609Z,2.70
2018-03-30T14:24:47.060Z,2.50
2018-03-30T14:25:47.056Z,2.70
2018-03-30T14:27:40.008Z,2.30
2018-03-30T14:28:40.006Z,4.10
2018-03-30T14:30:32.941Z,2.80
2018-03-30T14:31:32.960Z,2.60
2018-03-30T14:33:25.909Z,3.10
2018-03-30T14:34:25.905Z,2.70
2018-03-30T14:36:18.838Z,2.50
2018-03-30T14:37:18.854Z,2.40
2018-03-30T14:39:11.821Z,2.70
2018-03-30T14:40:11.882Z,2.50
2018-03-30T14:42:05.246Z,2.80
2018-03-30T14:43:05.263Z,2.80
2018-03-30T14:44:58.215Z,2.60
2018-03-30T14:45:58.210Z,2.40
2018-03-30T14:47:51.143Z,2.20
2018-03-30T14:48:51.159Z,2.40
2018-03-30T14:50:44.112Z,2.60
2018-03-30T14:51:44.108Z,2.90
2018-03-30T14:53:37.101Z,2.80
2018-03-30T14:54:37.069Z,2.90
2018-03-30T14:56:30.000Z,2.70
2018-03-30T14:57:30.017Z,3.90
2018-03-30T14:59:22.976Z,2.60
2018-03-30T15:00:22.977Z,2.80
2018-03-30T15:02:15.907Z,5.00
2018-03-30T15:03:15.922Z,2.90
2018-03-30T15:05:08.869Z,3.00
2018-03-30T15:06:08.904Z,2.50
2018-03-30T15:08:01.805Z,2.60
2018-03-30T15:09:01.815Z,2.50
2018-03-30T15:10:54.771Z,2.80
2018-03-30T15:11:54.763Z,2.70
2018-03-30T15:13:47.700Z,3.00
2018-03-30T15:14:47.716Z,3.10
2018-03-30T15:16:40.668Z,2.70
2018-03-30T15:17:40.669Z,2.60
2018-03-30T15:19:33.611Z,2.60
2018-03-30T15:20:33.621Z,2.50
2018-03-30T15:22:26.585Z,2.30
2018-03-30T15:23:26.582Z,2.70
2018-03-30T15:25:19.517Z,2.40
2018-03-30T15:26:19.530Z,2.40
2018-03-30T15:28:12.485Z,2.50
2018-03-30T15:29:12.488Z,2.40
2018-03-30T15:31:05.454Z,2.40
2018-03-30T15:32:05.435Z,2.70
2018-03-30T15:33:58.387Z,2.40
2018-03-30T15:34:58.402Z,2.30
2018-03-30T15:36:51.358Z,2.50
2018-03-30T15:37:51.346Z,2.20
2018-03-30T15:39:44.285Z,2.70
2018-03-30T15:40:44.297Z,2.40
2018-03-30T15:42:37.250Z,2.50
2018-03-30T15:43:37.246Z,2.40
2018-03-30T15:45:30.181Z,2.40
2018-03-30T15:46:30.193Z,2.40
2018-03-30T15:48:23.146Z,2.50
2018-03-30T15:49:23.139Z,2.40
2018-03-30T15:51:16.092Z,2.50
2018-03-30T15:52:16.088Z,2.40
2018-03-30T15:54:09.048Z,2.40
2018-03-30T15:55:09.043Z,2.40
2018-03-30T15:57:01.999Z,2.50
2018-03-30T15:58:02.007Z,2.50
2018-03-30T15:59:54.923Z,2.30
2018-03-30T16:00:54.942Z,2.30
2018-03-30T16:02:47.899Z,2.30
2018-03-30T16:03:47.892Z,2.40
2018-03-30T16:05:40.832Z,2.30
2018-03-30T16:06:40.842Z,2.40
2018-03-30T16:08:33.795Z,2.50
2018-03-30T16:09:33.790Z,2.30
2018-03-30T16:11:26.719Z,2.30
2018-03-30T16:12:26.730Z,2.20
2018-03-30T16:14:19.696Z,2.30
2018-03-30T16:15:19.690Z,2.60
2018-03-30T16:17:12.621Z,2.00
2018-03-30T16:18:12.634Z,2.40
2018-03-30T16:20:05.586Z,2.40
2018-03-30T16:21:05.582Z,2.20
2018-03-30T16:22:58.538Z,2.40
2018-03-30T16:23:58.534Z,2.60
2018-03-30T16:25:51.464Z,2.20
2018-03-30T16:26:51.480Z,2.10
2018-03-30T16:28:44.427Z,2.40
2018-03-30T16:29:44.426Z,2.30
2018-03-30T16:31:37.356Z,2.70
2018-03-30T16:32:37.370Z,2.40
2018-03-30T16:34:30.331Z,2.50
2018-03-30T16:35:30.340Z,2.10
2018-03-30T16:37:23.265Z,2.30
2018-03-30T16:38:23.281Z,2.20
2018-03-30T16:40:16.228Z,2.30
2018-03-30T16:41:16.235Z,2.20
2018-03-30T16:43:09.180Z,2.60
2018-03-30T16:44:09.178Z,2.00
2018-03-30T16:46:02.110Z,2.30
2018-03-30T16:47:02.124Z,2.50
2018-03-30T16:48:55.074Z,2.10
2018-03-30T16:49:55.070Z,2.30
2018-03-30T16:51:48.017Z,2.20
2018-03-30T16:52:48.029Z,2.00
2018-03-30T16:54:40.978Z,2.30
2018-03-30T16:55:40.973Z,2.30
2018-03-30T16:57:33.905Z,2.20
2018-03-30T16:58:33.921Z,2.30
2018-03-30T17:00:26.866Z,2.20
2018-03-30T17:01:26.865Z,2.30
2018-03-30T17:03:19.813Z,2.20
2018-03-30T17:04:19.809Z,2.20
2018-03-30T17:06:12.736Z,2.60
2018-03-30T17:07:12.750Z,2.10
2018-03-30T17:09:05.707Z,2.50
2018-03-30T17:10:05.700Z,2.00
2018-03-30T17:11:59.130Z,2.20
2018-03-30T17:12:59.141Z,2.00
2018-03-30T17:14:52.088Z,2.30
2018-03-30T17:15:52.089Z,2.10
2018-03-30T17:17:45.016Z,2.00
2018-03-30T17:18:45.028Z,2.10
2018-03-30T17:20:37.982Z,2.10
2018-03-30T17:21:37.977Z,2.00
2018-03-30T17:23:30.935Z,2.80
2018-03-30T17:24:30.926Z,2.50
2018-03-30T17:26:23.858Z,2.10
2018-03-30T17:27:23.873Z,2.30
2018-03-30T17:29:16.835Z,2.20
2018-03-30T17:30:16.830Z,2.40
2018-03-30T17:32:09.744Z,3.90
2018-03-30T17:33:09.761Z,3.80
2018-03-30T17:35:02.714Z,3.70
2018-03-30T17:36:02.702Z,3.50
2018-03-30T17:37:55.638Z,2.30
2018-03-30T17:38:55.651Z,2.60
2018-03-30T17:40:48.606Z,2.20
2018-03-30T17:41:48.600Z,2.50
2018-03-30T17:43:41.559Z,2.00
2018-03-30T17:44:41.551Z,2.50
2018-03-30T17:46:34.483Z,2.60
2018-03-30T17:47:34.501Z,2.10
2018-03-30T17:49:27.447Z,2.30
2018-03-30T17:50:27.443Z,2.20
2018-03-30T17:52:20.379Z,2.40
2018-03-30T17:53:20.387Z,2.30
2018-03-30T17:55:13.331Z,2.20
2018-03-30T17:56:13.377Z,2.50
2018-03-30T17:58:06.256Z,2.40
2018-03-30T17:59:06.272Z,2.30
2018-03-30T18:00:59.219Z,2.40
2018-03-30T18:01:59.214Z,2.70
2018-03-30T18:03:52.176Z,2.30
2018-03-30T18:04:52.156Z,2.70
2018-03-30T18:06:45.082Z,2.30
2018-03-30T18:07:45.095Z,2.40
2018-03-30T18:09:38.045Z,2.80
2018-03-30T18:10:38.038Z,2.40
2018-03-30T18:12:30.984Z,2.60
2018-03-30T18:13:31.017Z,3.00
2018-03-30T18:15:23.943Z,2.50
2018-03-30T18:16:23.934Z,2.90
2018-03-30T18:18:16.864Z,2.60
2018-03-30T18:19:16.887Z,2.80
2018-03-30T18:21:09.835Z,2.70
2018-03-30T18:22:09.826Z,2.90
2018-03-30T18:24:02.774Z,3.20
2018-03-30T18:25:02.769Z,3.00
2018-03-30T18:26:55.694Z,4.50
2018-03-30T18:27:55.711Z,5.10
2018-03-30T18:29:48.657Z,4.60
2018-03-30T18:30:48.706Z,4.90
2018-03-30T18:32:41.580Z,3.50
2018-03-30T18:33:41.595Z,3.20
2018-03-30T18:35:34.542Z,4.80
2018-03-30T18:36:34.538Z,4.40
2018-03-30T18:38:27.471Z,4.60
2018-03-30T18:39:27.480Z,5.00
2018-03-30T18:41:20.430Z,4.40
2018-03-30T18:42:20.423Z,4.10
2018-03-30T18:44:13.369Z,3.60
2018-03-30T18:45:13.363Z,3.50
2018-03-30T18:47:06.294Z,3.70
2018-03-30T18:48:06.306Z,3.50
2018-03-30T18:49:59.256Z,3.90
2018-03-30T18:50:59.251Z,3.60
2018-03-30T18:52:52.177Z,4.10
2018-03-30T18:53:52.188Z,3.50
2018-03-30T18:55:45.149Z,3.90
2018-03-30T18:56:45.138Z,3.50
2018-03-30T18:58:38.062Z,3.70
2018-03-30T18:59:38.075Z,3.60
2018-03-30T19:01:31.031Z,3.40
2018-03-30T19:02:31.021Z,3.50
2018-03-30T19:04:23.985Z,3.20
2018-03-30T19:05:23.968Z,3.40
2018-03-30T19:07:16.903Z,3.30
2018-03-30T19:08:16.916Z,3.90
2018-03-30T19:10:09.864Z,4.40
2018-03-30T19:11:09.856Z,3.90
2018-03-30T19:13:03.282Z,4.00
2018-03-30T19:14:03.291Z,4.30
2018-03-30T19:15:56.236Z,3.90
2018-03-30T19:16:56.230Z,3.80
2018-03-30T19:18:49.171Z,3.50
2018-03-30T19:19:49.184Z,3.40
2018-03-30T19:21:42.131Z,4.10
2018-03-30T19:22:42.120Z,3.70
2018-03-30T19:24:35.090Z,3.60
2018-03-30T19:25:35.062Z,3.60
2018-03-30T19:27:27.992Z,3.50
2018-03-30T19:28:28.005Z,3.50
2018-03-30T19:30:20.958Z,3.80
2018-03-30T19:31:20.955Z,3.50
2018-03-30T19:33:13.885Z,2.90
2018-03-30T19:34:13.900Z,2.90
2018-03-30T19:36:06.845Z,2.70
2018-03-30T19:37:06.839Z,3.10
2018-03-30T19:38:59.777Z,2.80
2018-03-30T19:39:59.814Z,2.00
2018-03-30T19:41:52.720Z,2.00
2018-03-30T19:42:52.716Z,2.10
2018-03-30T19:44:45.640Z,2.20
2018-03-30T19:45:45.652Z,2.00
2018-03-30T19:47:38.605Z,1.90
2018-03-30T19:48:38.598Z,1.90
2018-03-30T19:50:31.546Z,1.80
2018-03-30T19:51:31.538Z,1.90
2018-03-30T19:53:24.474Z,2.10
2018-03-30T19:54:24.483Z,2.10
2018-03-30T19:56:17.432Z,2.20
2018-03-30T19:57:17.419Z,2.00
2018-03-30T19:59:10.346Z,2.20
2018-03-30T20:00:10.368Z,1.80
2018-03-30T20:02:03.308Z,2.00
2018-03-30T20:03:03.299Z,2.10
2018-03-30T20:04:56.233Z,2.00
2018-03-30T20:05:56.240Z,2.00
2018-03-30T20:07:49.189Z,2.10
2018-03-30T20:08:49.179Z,2.30
2018-03-30T20:10:42.130Z,2.10
2018-03-30T20:11:42.121Z,2.30
2018-03-30T20:13:35.048Z,2.10
2018-03-30T20:14:35.059Z,2.50
2018-03-30T20:16:28.006Z,2.30
2018-03-30T20:17:27.996Z,2.20
2018-03-30T20:19:20.923Z,1.90
2018-03-30T20:20:20.936Z,2.20
2018-03-30T20:22:13.976Z,2.20
2018-03-30T20:23:13.926Z,1.90
2018-03-30T20:25:06.817Z,2.10
2018-03-30T20:26:06.828Z,2.10
2018-03-30T20:27:59.775Z,2.40
2018-03-30T20:28:59.769Z,2.30
2018-03-30T20:30:52.722Z,2.20
2018-03-30T20:31:52.712Z,2.40
2018-03-30T20:33:45.640Z,2.30
2018-03-30T20:34:45.652Z,2.50
2018-03-30T20:36:38.598Z,2.20
2018-03-30T20:37:38.608Z,1.90
2018-03-30T20:39:31.520Z,2.10
2018-03-30T20:40:31.530Z,2.00
2018-03-30T20:42:24.488Z,1.80
2018-03-30T20:43:24.473Z,1.80
2018-03-30T20:45:17.396Z,1.90
2018-03-30T20:46:17.410Z,1.90
2018-03-30T20:48:10.358Z,2.00
2018-03-30T20:49:10.359Z,2.10
2018-03-30T20:51:03.293Z,1.90
2018-03-30T20:52:03.291Z,1.80
2018-03-30T20:53:56.230Z,1.80
2018-03-30T20:54:56.243Z,2.10
2018-03-30T20:56:49.711Z,1.80
2018-03-30T20:57:49.676Z,1.80
2018-03-30T20:59:42.602Z,1.70
2018-03-30T21:00:42.615Z,1.90
2018-03-30T21:02:35.561Z,1.70
2018-03-30T21:03:35.554Z,1.60
2018-03-30T21:05:28.479Z,2.00
2018-03-30T21:06:28.497Z,1.80
2018-03-30T21:08:21.496Z,1.70